createdAt,value
2017-02-21T00:00:09.830Z,997.33
2017-02-21T00:01:09.845Z,997.36
2017-02-21T00:02:09.861Z,997.35
2017-02-21T00:03:09.876Z,997.31
2017-02-21T00:04:09.892Z,997.32
2017-02-21T00:05:09.908Z,997.35
2017-02-21T00:06:09.923Z,997.25
2017-02-21T00:07:09.938Z,997.22
2017-02-21T00:08:09.954Z,997.09
2017-02-21T00:09:09.970Z,997.18
2017-02-21T00:10:09.987Z,997.23
2017-02-21T00:11:10.001Z,997.15
2017-02-21T00:12:10.118Z,997.19
2017-02-21T00:13:10.032Z,997.17
2017-02-21T00:14:10.048Z,997.12
2017-02-21T00:15:10.065Z,997.22
2017-02-21T00:16:10.080Z,997.2
2017-02-21T00:17:10.094Z,997.16
2017-02-21T00:18:10.111Z,997.17
2017-02-21T00:19:10.128Z,997.17
2017-02-21T00:20:10.142Z,997.14
2017-02-21T00:21:10.157Z,997.09
2017-02-21T00:22:10.173Z,997.09
2017-02-21T00:23:10.189Z,997.1
2017-02-21T00:24:10.204Z,997.03
2017-02-21T00:25:10.220Z,997.09
2017-02-21T00:26:10.236Z,997.06
2017-02-21T00:27:10.252Z,997
2017-02-21T00:28:10.266Z,997.07
2017-02-21T00:29:10.282Z,997.03
2017-02-21T00:30:10.299Z,997.03
2017-02-21T00:31:10.339Z,997.05
2017-02-21T00:32:10.328Z,996.97
2017-02-21T00:33:10.345Z,997.05
2017-02-21T00:34:10.361Z,997.01
2017-02-21T00:35:10.390Z,997.05
2017-02-21T00:36:10.400Z,997
2017-02-21T00:37:10.567Z,997.07
2017-02-21T00:38:10.423Z,997.06
2017-02-21T00:39:10.438Z,996.99
2017-02-21T00:40:10.453Z,996.99
2017-02-21T00:41:10.498Z,997.05
2017-02-21T00:42:10.486Z,997.03
2017-02-21T00:43:10.502Z,996.98
2017-02-21T00:44:10.517Z,996.97
2017-02-21T00:45:10.532Z,996.94
2017-02-21T00:46:10.548Z,996.97
2017-02-21T00:47:10.564Z,996.96
2017-02-21T00:48:10.580Z,996.95
2017-02-21T00:49:10.594Z,996.99
2017-02-21T00:50:10.610Z,997.03
2017-02-21T00:51:10.626Z,996.96
2017-02-21T00:52:10.641Z,996.98
2017-02-21T00:53:10.657Z,997.02
2017-02-21T00:54:10.673Z,996.98
2017-02-21T00:55:10.688Z,996.99
2017-02-21T00:56:10.704Z,996.97
2017-02-21T00:57:10.719Z,997
2017-02-21T00:58:10.735Z,997.01
2017-02-21T00:59:10.751Z,997.04
2017-02-21T01:00:10.768Z,996.98
2017-02-21T01:01:10.781Z,997.06
2017-02-21T01:02:10.799Z,997.08
2017-02-21T01:03:10.814Z,996.99
2017-02-21T01:04:10.829Z,996.95
2017-02-21T01:05:10.845Z,997
2017-02-21T01:06:10.860Z,996.99
2017-02-21T01:07:10.875Z,996.98
2017-02-21T01:08:10.891Z,996.94
2017-02-21T01:09:10.907Z,996.93
2017-02-21T01:10:10.923Z,996.97
2017-02-21T01:11:10.939Z,996.93
2017-02-21T01:12:10.954Z,996.92
2017-02-21T01:13:10.970Z,996.88
2017-02-21T01:14:10.985Z,996.89
2017-02-21T01:15:11.002Z,996.9
2017-02-21T01:16:11.017Z,996.92
2017-02-21T01:17:11.031Z,996.91
2017-02-21T01:18:11.049Z,996.93
2017-02-21T01:19:11.063Z,996.92
2017-02-21T01:20:11.078Z,996.93
2017-02-21T01:21:11.095Z,996.89
2017-02-21T01:22:11.111Z,996.89
2017-02-21T01:23:11.127Z,996.88
2017-02-21T01:24:11.145Z,996.94
2017-02-21T01:25:11.158Z,996.88
2017-02-21T01:26:11.174Z,996.98
2017-02-21T01:27:11.188Z,996.97
2017-02-21T01:28:11.204Z,997.01
2017-02-21T01:29:11.223Z,996.99
2017-02-21T01:30:11.262Z,996.99
2017-02-21T01:31:11.254Z,997.01
2017-02-21T01:32:11.269Z,997
2017-02-21T01:33:11.284Z,996.91
2017-02-21T01:34:11.301Z,997.01
2017-02-21T01:35:11.317Z,996.98
2017-02-21T01:36:11.332Z,997.02
2017-02-21T01:37:11.349Z,996.95
2017-02-21T01:38:11.364Z,996.93
2017-02-21T01:39:11.378Z,996.96
2017-02-21T01:40:11.396Z,996.95
2017-02-21T01:41:11.408Z,996.94
2017-02-21T01:42:11.424Z,996.97
2017-02-21T01:43:11.441Z,996.98
2017-02-21T01:44:11.456Z,997.03
2017-02-21T01:45:11.473Z,996.95
2017-02-21T01:46:11.487Z,996.96
2017-02-21T01:47:11.505Z,996.97
2017-02-21T01:48:11.519Z,997.02
2017-02-21T01:49:11.535Z,997.03
2017-02-21T01:50:11.552Z,997.06
2017-02-21T01:51:11.567Z,997.05
2017-02-21T01:52:11.581Z,997.08
2017-02-21T01:53:11.597Z,997
2017-02-21T01:54:11.614Z,996.94
2017-02-21T01:55:11.629Z,996.98
2017-02-21T01:56:11.645Z,996.97
2017-02-21T01:57:11.661Z,996.89
2017-02-21T01:58:11.677Z,996.91
2017-02-21T01:59:11.690Z,996.83
2017-02-21T02:00:11.708Z,996.9
2017-02-21T02:01:11.723Z,996.91
2017-02-21T02:02:11.739Z,996.91
2017-02-21T02:03:11.754Z,996.91
2017-02-21T02:04:11.770Z,996.94
2017-02-21T02:05:11.784Z,996.98
2017-02-21T02:06:11.805Z,996.93
2017-02-21T02:07:11.816Z,996.95
2017-02-21T02:08:11.833Z,996.9
2017-02-21T02:09:11.848Z,996.9
2017-02-21T02:10:11.863Z,996.89
2017-02-21T02:11:11.878Z,996.87
2017-02-21T02:12:11.893Z,996.9
2017-02-21T02:13:11.912Z,996.9
2017-02-21T02:14:11.926Z,996.87
2017-02-21T02:15:11.942Z,996.87
2017-02-21T02:16:11.957Z,996.96
2017-02-21T02:17:11.974Z,996.9
2017-02-21T02:18:11.988Z,996.95
2017-02-21T02:19:12.005Z,996.9
2017-02-21T02:20:12.021Z,996.93
2017-02-21T02:21:12.036Z,996.89
2017-02-21T02:22:12.052Z,996.9
2017-02-21T02:23:12.067Z,996.87
2017-02-21T02:24:12.083Z,996.88
2017-02-21T02:25:12.098Z,996.78
2017-02-21T02:26:12.114Z,996.76
2017-02-21T02:27:12.130Z,996.78
2017-02-21T02:28:12.145Z,996.73
2017-02-21T02:29:12.161Z,996.78
2017-02-21T02:30:12.177Z,996.81
2017-02-21T02:31:12.193Z,996.79
2017-02-21T02:32:12.206Z,996.81
2017-02-21T02:33:12.224Z,996.8
2017-02-21T02:34:12.242Z,996.74
2017-02-21T02:35:12.254Z,996.82
2017-02-21T02:36:12.269Z,996.76
2017-02-21T02:37:12.287Z,996.75
2017-02-21T02:38:12.302Z,996.77
2017-02-21T02:39:12.318Z,996.78
2017-02-21T02:40:12.331Z,996.81
2017-02-21T02:41:12.348Z,996.81
2017-02-21T02:42:12.364Z,996.74
2017-02-21T02:43:12.378Z,996.76
2017-02-21T02:44:12.393Z,996.72
2017-02-21T02:45:12.412Z,996.69
2017-02-21T02:46:12.427Z,996.66
2017-02-21T02:47:12.442Z,996.72
2017-02-21T02:48:12.458Z,996.68
2017-02-21T02:49:12.474Z,996.71
2017-02-21T02:50:12.490Z,996.7
2017-02-21T02:51:12.505Z,996.75
2017-02-21T02:52:12.520Z,996.73
2017-02-21T02:53:12.536Z,996.74
2017-02-21T02:54:12.550Z,996.71
2017-02-21T02:55:12.567Z,996.78
2017-02-21T02:56:12.582Z,996.72
2017-02-21T02:57:12.598Z,996.78
2017-02-21T02:58:12.613Z,996.76
2017-02-21T02:59:12.628Z,996.78
2017-02-21T03:00:12.646Z,996.81
2017-02-21T03:01:12.663Z,996.79
2017-02-21T03:02:12.676Z,996.79
2017-02-21T03:03:12.692Z,996.79
2017-02-21T03:04:12.708Z,996.84
2017-02-21T03:05:12.721Z,996.78
2017-02-21T03:06:12.738Z,996.79
2017-02-21T03:07:12.754Z,996.76
2017-02-21T03:08:12.770Z,996.76
2017-02-21T03:09:12.784Z,996.78
2017-02-21T03:10:12.801Z,996.8
2017-02-21T03:11:12.817Z,996.79
2017-02-21T03:12:12.832Z,996.78
2017-02-21T03:13:12.847Z,996.78
2017-02-21T03:14:12.861Z,996.76
2017-02-21T03:15:12.880Z,996.8
2017-02-21T03:16:12.894Z,996.78
2017-02-21T03:17:12.910Z,996.79
2017-02-21T03:18:12.925Z,996.86
2017-02-21T03:19:12.942Z,996.92
2017-02-21T03:20:12.956Z,996.88
2017-02-21T03:21:12.971Z,996.84
2017-02-21T03:22:12.989Z,996.79
2017-02-21T03:23:13.005Z,996.81
2017-02-21T03:24:13.021Z,996.78
2017-02-21T03:25:13.035Z,996.74
2017-02-21T03:26:13.054Z,996.68
2017-02-21T03:27:13.065Z,996.67
2017-02-21T03:28:13.083Z,996.68
2017-02-21T03:29:13.099Z,996.72
2017-02-21T03:30:13.117Z,996.75
2017-02-21T03:31:13.129Z,996.71
2017-02-21T03:32:13.146Z,996.7
2017-02-21T03:33:13.163Z,996.67
2017-02-21T03:34:13.178Z,996.6
2017-02-21T03:35:13.192Z,996.61
2017-02-21T03:36:13.208Z,996.58
2017-02-21T03:37:13.224Z,996.6
2017-02-21T03:38:13.237Z,996.59
2017-02-21T03:39:13.255Z,996.55
2017-02-21T03:40:13.274Z,996.6
2017-02-21T03:41:13.287Z,996.64
2017-02-21T03:42:13.302Z,996.65
2017-02-21T03:43:13.317Z,996.67
2017-02-21T03:44:13.333Z,996.68
2017-02-21T03:45:13.347Z,996.61
2017-02-21T03:46:13.368Z,996.6
2017-02-21T03:47:13.381Z,996.58
2017-02-21T03:48:13.399Z,996.59
2017-02-21T03:49:13.411Z,996.6
2017-02-21T03:50:13.427Z,996.62
2017-02-21T03:51:13.441Z,996.64
2017-02-21T03:52:13.459Z,996.66
2017-02-21T03:53:13.476Z,996.63
2017-02-21T03:54:13.491Z,996.6
2017-02-21T03:55:13.507Z,996.59
2017-02-21T03:56:13.520Z,996.6
2017-02-21T03:57:13.536Z,996.53
2017-02-21T03:58:13.553Z,996.53
2017-02-21T03:59:13.571Z,996.58
2017-02-21T04:00:13.582Z,996.59
2017-02-21T04:01:13.600Z,996.53
2017-02-21T04:02:13.617Z,996.49
2017-02-21T04:03:13.632Z,996.52
2017-02-21T04:04:13.646Z,996.47
2017-02-21T04:05:13.662Z,996.44
2017-02-21T04:06:13.678Z,996.46
2017-02-21T04:07:13.693Z,996.49
2017-02-21T04:08:13.709Z,996.47
2017-02-21T04:09:13.726Z,996.46
2017-02-21T04:10:13.739Z,996.46
2017-02-21T04:11:13.756Z,996.44
2017-02-21T04:12:13.773Z,996.46
2017-02-21T04:13:13.787Z,996.46
2017-02-21T04:14:13.803Z,996.44
2017-02-21T04:15:13.821Z,996.44
2017-02-21T04:16:13.838Z,996.44
2017-02-21T04:17:13.849Z,996.42
2017-02-21T04:18:13.865Z,996.4
2017-02-21T04:19:13.881Z,996.43
2017-02-21T04:20:13.898Z,996.42
2017-02-21T04:21:13.913Z,996.48
2017-02-21T04:22:13.927Z,996.49
2017-02-21T04:23:13.944Z,996.44
2017-02-21T04:24:13.961Z,996.46
2017-02-21T04:25:13.976Z,996.45
2017-02-21T04:26:13.990Z,996.47
2017-02-21T04:27:14.005Z,996.47
2017-02-21T04:28:14.023Z,996.46
2017-02-21T04:29:14.037Z,996.46
2017-02-21T04:30:14.053Z,996.43
2017-02-21T04:31:14.068Z,996.46
2017-02-21T04:32:14.084Z,996.39
2017-02-21T04:33:14.098Z,996.41
2017-02-21T04:34:14.116Z,996.41
2017-02-21T04:35:14.132Z,996.4
2017-02-21T04:36:14.148Z,996.38
2017-02-21T04:37:14.162Z,996.41
2017-02-21T04:38:14.179Z,996.38
2017-02-21T04:39:14.193Z,996.4
2017-02-21T04:40:14.210Z,996.4
2017-02-21T04:41:14.225Z,996.41
2017-02-21T04:42:14.240Z,996.38
2017-02-21T04:43:14.257Z,996.4
2017-02-21T04:44:14.272Z,996.35
2017-02-21T04:45:14.287Z,996.32
2017-02-21T04:46:14.304Z,996.29
2017-02-21T04:47:14.319Z,996.28
2017-02-21T04:48:14.336Z,996.31
2017-02-21T04:49:14.351Z,996.35
2017-02-21T04:50:14.366Z,996.37
2017-02-21T04:51:14.411Z,996.35
2017-02-21T04:52:14.396Z,996.39
2017-02-21T04:53:14.412Z,996.39
2017-02-21T04:54:14.429Z,996.45
2017-02-21T04:55:14.443Z,996.41
2017-02-21T04:56:14.459Z,996.35
2017-02-21T04:57:14.476Z,996.33
2017-02-21T04:58:14.491Z,996.32
2017-02-21T04:59:14.506Z,996.31
2017-02-21T05:00:14.522Z,996.31
2017-02-21T05:01:14.540Z,996.38
2017-02-21T05:02:14.552Z,996.37
2017-02-21T05:03:14.568Z,996.38
2017-02-21T05:04:14.585Z,996.38
2017-02-21T05:05:14.600Z,996.31
2017-02-21T05:06:14.616Z,996.28
2017-02-21T05:07:14.632Z,996.28
2017-02-21T05:08:14.648Z,996.22
2017-02-21T05:09:14.663Z,996.27
2017-02-21T05:10:14.679Z,996.28
2017-02-21T05:11:14.693Z,996.24
2017-02-21T05:12:14.710Z,996.29
2017-02-21T05:13:14.725Z,996.3
2017-02-21T05:14:14.740Z,996.33
2017-02-21T05:15:14.755Z,996.37
2017-02-21T05:16:14.773Z,996.37
2017-02-21T05:17:14.788Z,996.33
2017-02-21T05:18:14.804Z,996.4
2017-02-21T05:19:14.819Z,996.4
2017-02-21T05:20:14.833Z,996.46
2017-02-21T05:21:14.850Z,996.46
2017-02-21T05:22:14.865Z,996.43
2017-02-21T05:23:14.881Z,996.43
2017-02-21T05:24:14.897Z,996.46
2017-02-21T05:25:14.911Z,996.42
2017-02-21T05:26:14.929Z,996.4
2017-02-21T05:27:14.946Z,996.38
2017-02-21T05:28:14.959Z,996.37
2017-02-21T05:29:14.974Z,996.37
2017-02-21T05:30:14.989Z,996.4
2017-02-21T05:31:15.005Z,996.36
2017-02-21T05:32:15.022Z,996.39
2017-02-21T05:33:15.037Z,996.35
2017-02-21T05:34:15.053Z,996.3
2017-02-21T05:35:15.067Z,996.31
2017-02-21T05:36:15.082Z,996.32
2017-02-21T05:37:15.099Z,996.3
2017-02-21T05:38:15.114Z,996.34
2017-02-21T05:39:15.130Z,996.3
2017-02-21T05:40:15.145Z,996.26
2017-02-21T05:41:15.161Z,996.25
2017-02-21T05:42:15.175Z,996.23
2017-02-21T05:43:15.194Z,996.24
2017-02-21T05:44:15.210Z,996.26
2017-02-21T05:45:15.224Z,996.28
2017-02-21T05:46:15.239Z,996.23
2017-02-21T05:47:15.255Z,996.3
2017-02-21T05:48:15.270Z,996.32
2017-02-21T05:49:15.287Z,996.33
2017-02-21T05:50:15.302Z,996.32
2017-02-21T05:51:15.318Z,996.38
2017-02-21T05:52:15.332Z,996.32
2017-02-21T05:53:15.348Z,996.38
2017-02-21T05:54:15.363Z,996.36
2017-02-21T05:55:15.379Z,996.35
2017-02-21T05:56:15.395Z,996.4
2017-02-21T05:57:15.409Z,996.39
2017-02-21T05:58:15.426Z,996.35
2017-02-21T05:59:15.442Z,996.31
2017-02-21T06:00:15.457Z,996.33
2017-02-21T06:01:15.473Z,996.36
2017-02-21T06:02:15.491Z,996.36
2017-02-21T06:03:15.504Z,996.41
2017-02-21T06:04:15.518Z,996.37
2017-02-21T06:05:15.534Z,996.4
2017-02-21T06:06:15.551Z,996.37
2017-02-21T06:07:15.566Z,996.38
2017-02-21T06:08:15.582Z,996.4
2017-02-21T06:09:15.598Z,996.34
2017-02-21T06:10:15.614Z,996.38
2017-02-21T06:11:15.629Z,996.4
2017-02-21T06:12:15.643Z,996.36
2017-02-21T06:13:15.659Z,996.39
2017-02-21T06:14:15.675Z,996.34
2017-02-21T06:15:15.691Z,996.35
2017-02-21T06:16:15.706Z,996.35
2017-02-21T06:17:15.724Z,996.3
2017-02-21T06:18:15.738Z,996.36
2017-02-21T06:19:15.754Z,996.33
2017-02-21T06:20:15.769Z,996.31
2017-02-21T06:21:15.785Z,996.37
2017-02-21T06:22:15.800Z,996.36
2017-02-21T06:23:15.814Z,996.35
2017-02-21T06:24:15.831Z,996.38
2017-02-21T06:25:15.846Z,996.37
2017-02-21T06:26:15.861Z,996.38
2017-02-21T06:27:15.877Z,996.4
2017-02-21T06:28:15.896Z,996.42
2017-02-21T06:29:15.911Z,996.4
2017-02-21T06:30:15.925Z,996.43
2017-02-21T06:31:15.940Z,996.49
2017-02-21T06:32:15.956Z,996.51
2017-02-21T06:33:15.973Z,996.57
2017-02-21T06:34:15.988Z,996.55
2017-02-21T06:35:16.004Z,996.51
2017-02-21T06:36:16.020Z,996.54
2017-02-21T06:37:16.035Z,996.52
2017-02-21T06:38:16.050Z,996.5
2017-02-21T06:39:16.067Z,996.49
2017-02-21T06:40:16.118Z,996.52
2017-02-21T06:41:16.097Z,996.43
2017-02-21T06:42:16.114Z,996.4
2017-02-21T06:43:16.129Z,996.39
2017-02-21T06:44:16.143Z,996.39
2017-02-21T06:45:16.159Z,996.4
2017-02-21T06:46:16.175Z,996.39
2017-02-21T06:47:16.190Z,996.4
2017-02-21T06:48:16.206Z,996.4
2017-02-21T06:49:16.223Z,996.39
2017-02-21T06:50:16.238Z,996.37
2017-02-21T06:51:16.253Z,996.4
2017-02-21T06:52:16.267Z,996.38
2017-02-21T06:53:16.288Z,996.33
2017-02-21T06:54:16.300Z,996.41
2017-02-21T06:55:16.314Z,996.45
2017-02-21T06:56:16.331Z,996.51
2017-02-21T06:57:16.346Z,996.54
2017-02-21T06:58:16.365Z,996.59
2017-02-21T06:59:16.440Z,996.58
2017-02-21T07:00:16.392Z,996.58
2017-02-21T07:01:16.409Z,996.62
2017-02-21T07:02:16.426Z,996.62
2017-02-21T07:03:16.441Z,996.67
2017-02-21T07:04:16.455Z,996.69
2017-02-21T07:05:16.471Z,996.69
2017-02-21T07:06:16.486Z,996.68
2017-02-21T07:07:16.503Z,996.64
2017-02-21T07:08:16.519Z,996.69
2017-02-21T07:09:16.532Z,996.66
2017-02-21T07:10:16.548Z,996.62
2017-02-21T07:11:16.565Z,996.68
2017-02-21T07:12:16.582Z,996.68
2017-02-21T07:13:16.595Z,996.75
2017-02-21T07:14:16.611Z,996.7
2017-02-21T07:15:16.627Z,996.69
2017-02-21T07:16:16.643Z,996.73
2017-02-21T07:17:16.657Z,996.68
2017-02-21T07:18:16.709Z,996.69
2017-02-21T07:19:16.690Z,996.74
2017-02-21T07:20:16.705Z,996.77
2017-02-21T07:21:16.720Z,996.74
2017-02-21T07:22:16.738Z,996.75
2017-02-21T07:23:16.751Z,996.73
2017-02-21T07:24:16.768Z,996.75
2017-02-21T07:25:16.786Z,996.75
2017-02-21T07:26:16.799Z,996.75
2017-02-21T07:27:16.815Z,996.76
2017-02-21T07:28:16.829Z,996.75
2017-02-21T07:29:16.846Z,996.75
2017-02-21T07:30:16.863Z,996.76
2017-02-21T07:31:16.877Z,996.74
2017-02-21T07:32:16.891Z,996.79
2017-02-21T07:33:16.907Z,996.81
2017-02-21T07:34:16.923Z,996.78
2017-02-21T07:35:16.940Z,996.79
2017-02-21T07:36:16.954Z,996.81
2017-02-21T07:37:16.970Z,996.77
2017-02-21T07:38:16.988Z,996.79
2017-02-21T07:39:17.000Z,996.76
2017-02-21T07:40:17.017Z,996.78
2017-02-21T07:41:17.033Z,996.78
2017-02-21T07:42:17.051Z,996.85
2017-02-21T07:43:17.063Z,996.76
2017-02-21T07:44:17.080Z,996.77
2017-02-21T07:45:17.096Z,996.82
2017-02-21T07:46:17.112Z,996.84
2017-02-21T07:47:17.128Z,996.86
2017-02-21T07:48:17.143Z,996.87
2017-02-21T07:49:17.158Z,996.82
2017-02-21T07:50:17.174Z,996.83
2017-02-21T07:51:17.189Z,996.83
2017-02-21T07:52:17.207Z,996.81
2017-02-21T07:53:17.222Z,996.83
2017-02-21T07:54:17.237Z,996.85
2017-02-21T07:55:17.253Z,996.85
2017-02-21T07:56:17.272Z,996.88
2017-02-21T07:57:17.285Z,996.83
2017-02-21T07:58:17.299Z,996.83
2017-02-21T07:59:17.316Z,996.85
2017-02-21T08:00:17.333Z,996.85
2017-02-21T08:01:17.347Z,996.85
2017-02-21T08:02:17.363Z,996.84
2017-02-21T08:03:17.379Z,996.9
2017-02-21T08:04:17.395Z,996.88
2017-02-21T08:05:17.508Z,996.88
2017-02-21T08:06:17.508Z,996.87
2017-02-21T08:07:17.652Z,996.91
2017-02-21T08:08:17.524Z,996.91
2017-02-21T08:09:17.533Z,996.9
2017-02-21T08:10:17.542Z,996.91
2017-02-21T08:11:17.541Z,996.9
2017-02-21T08:12:17.713Z,996.86
2017-02-21T08:13:17.557Z,996.87
2017-02-21T08:14:17.567Z,996.9
2017-02-21T08:15:17.736Z,996.88
2017-02-21T08:16:17.587Z,996.93
2017-02-21T08:17:17.618Z,996.93
2017-02-21T08:18:17.616Z,996.97
2017-02-21T08:19:17.633Z,996.99
2017-02-21T08:20:17.650Z,996.94
2017-02-21T08:21:17.664Z,997.03
2017-02-21T08:22:17.679Z,996.96
2017-02-21T08:23:17.695Z,996.98
2017-02-21T08:24:17.713Z,996.97
2017-02-21T08:25:17.729Z,997
2017-02-21T08:26:17.744Z,997.03
2017-02-21T08:27:17.758Z,996.99
2017-02-21T08:28:17.774Z,997.06
2017-02-21T08:29:17.791Z,997.02
2017-02-21T08:30:17.806Z,997.03
2017-02-21T08:31:17.822Z,996.97
2017-02-21T08:32:17.838Z,997
2017-02-21T08:33:17.853Z,997
2017-02-21T08:34:17.869Z,996.96
2017-02-21T08:35:17.885Z,997
2017-02-21T08:36:17.901Z,997
2017-02-21T08:37:17.960Z,996.99
2017-02-21T08:38:17.932Z,996.98
2017-02-21T08:39:17.948Z,997.06
2017-02-21T08:40:17.964Z,996.99
2017-02-21T08:41:17.980Z,996.97
2017-02-21T08:42:17.996Z,997.04
2017-02-21T08:43:18.013Z,997.04
2017-02-21T08:44:18.028Z,997.03
2017-02-21T08:45:18.043Z,997.03
2017-02-21T08:46:18.060Z,997.07
2017-02-21T08:47:18.075Z,997.06
2017-02-21T08:48:18.093Z,997.1
2017-02-21T08:49:18.108Z,997.08
2017-02-21T08:50:18.124Z,997.12
2017-02-21T08:51:18.140Z,997.15
2017-02-21T08:52:18.154Z,997.15
2017-02-21T08:53:18.174Z,997.15
2017-02-21T08:54:18.187Z,997.13
2017-02-21T08:55:18.206Z,997.14
2017-02-21T08:56:18.220Z,997.11
2017-02-21T08:57:18.235Z,997.13
2017-02-21T08:58:18.252Z,997.15
2017-02-21T08:59:18.268Z,997.11
2017-02-21T09:00:18.282Z,997.14
2017-02-21T09:01:18.300Z,997.11
2017-02-21T09:02:18.315Z,997.12
2017-02-21T09:03:18.331Z,997.18
2017-02-21T09:04:18.348Z,997.21
2017-02-21T09:05:18.365Z,997.19
2017-02-21T09:06:18.380Z,997.26
2017-02-21T09:07:18.395Z,997.29
2017-02-21T09:08:18.489Z,997.32
2017-02-21T09:09:18.429Z,997.31
2017-02-21T09:10:18.446Z,997.3
2017-02-21T09:11:18.459Z,997.36
2017-02-21T09:12:18.475Z,997.34
2017-02-21T09:13:18.492Z,997.38
2017-02-21T09:14:18.507Z,997.45
2017-02-21T09:15:18.524Z,997.39
2017-02-21T09:16:18.541Z,997.44
2017-02-21T09:17:18.558Z,997.42
2017-02-21T09:18:18.571Z,997.47
2017-02-21T09:19:18.588Z,997.52
2017-02-21T09:20:18.606Z,997.55
2017-02-21T09:21:18.621Z,997.57
2017-02-21T09:22:18.637Z,997.54
2017-02-21T09:23:18.652Z,997.51
2017-02-21T09:24:18.669Z,997.56
2017-02-21T09:25:18.684Z,997.58
2017-02-21T09:26:18.702Z,997.59
2017-02-21T09:27:18.717Z,997.56
2017-02-21T09:28:18.733Z,997.63
2017-02-21T09:29:18.751Z,997.64
2017-02-21T09:30:18.765Z,997.64
2017-02-21T09:31:18.780Z,997.74
2017-02-21T09:32:18.798Z,997.69
2017-02-21T09:33:18.814Z,997.71
2017-02-21T09:34:18.830Z,997.73
2017-02-21T09:35:18.846Z,997.7
2017-02-21T09:36:18.861Z,997.76
2017-02-21T09:37:18.876Z,997.75
2017-02-21T09:38:18.894Z,997.76
2017-02-21T09:39:18.911Z,997.77
2017-02-21T09:40:18.926Z,997.77
2017-02-21T09:41:18.943Z,997.82
2017-02-21T09:42:18.959Z,997.81
2017-02-21T09:43:18.976Z,997.83
2017-02-21T09:44:18.991Z,997.81
2017-02-21T09:45:19.008Z,997.78
2017-02-21T09:46:19.023Z,997.83
2017-02-21T09:47:19.044Z,997.87
2017-02-21T09:48:19.060Z,997.91
2017-02-21T09:49:19.072Z,997.82
2017-02-21T09:50:19.091Z,997.93
2017-02-21T09:51:19.108Z,997.91
2017-02-21T09:52:19.120Z,997.95
2017-02-21T09:53:19.142Z,998.02
2017-02-21T09:54:19.151Z,997.98
2017-02-21T09:55:19.173Z,998
2017-02-21T09:56:19.191Z,998.07
2017-02-21T09:57:19.207Z,998.09
2017-02-21T09:58:19.217Z,998.02
2017-02-21T09:59:19.232Z,998.02
2017-02-21T10:00:19.250Z,998.14
2017-02-21T10:01:19.281Z,998.08
2017-02-21T10:02:19.282Z,998.07
2017-02-21T10:03:19.300Z,998.08
2017-02-21T10:04:19.314Z,998.08
2017-02-21T10:05:19.397Z,998.16
2017-02-21T10:06:19.347Z,998.13
2017-02-21T10:07:19.365Z,998.15
2017-02-21T10:08:19.380Z,998.15
2017-02-21T10:09:19.396Z,998.18
2017-02-21T10:10:19.411Z,998.19
2017-02-21T10:11:19.428Z,998.11
2017-02-21T10:12:19.449Z,998.18
2017-02-21T10:13:19.460Z,998.15
2017-02-21T10:14:19.477Z,998.18
2017-02-21T10:15:19.496Z,998.17
2017-02-21T10:16:19.509Z,998.2
2017-02-21T10:17:19.526Z,998.18
2017-02-21T10:18:19.542Z,998.18
2017-02-21T10:19:19.559Z,998.26
2017-02-21T10:20:19.576Z,998.22
2017-02-21T10:21:19.592Z,998.3
2017-02-21T10:22:19.606Z,998.26
2017-02-21T10:23:19.623Z,998.23
2017-02-21T10:24:19.640Z,998.19
2017-02-21T10:25:19.656Z,998.2
2017-02-21T10:26:19.672Z,998.19
2017-02-21T10:27:19.688Z,998.22
2017-02-21T10:28:19.704Z,998.27
2017-02-21T10:29:19.720Z,998.29
2017-02-21T10:30:19.737Z,998.27
2017-02-21T10:31:19.752Z,998.28
2017-02-21T10:32:19.769Z,998.32
2017-02-21T10:33:19.786Z,998.38
2017-02-21T10:34:19.801Z,998.35
2017-02-21T10:35:19.819Z,998.36
2017-02-21T10:36:19.835Z,998.32
2017-02-21T10:37:19.850Z,998.43
2017-02-21T10:38:19.867Z,998.39
2017-02-21T10:39:19.883Z,998.35
2017-02-21T10:40:19.898Z,998.39
2017-02-21T10:41:19.916Z,998.49
2017-02-21T10:42:19.931Z,998.42
2017-02-21T10:43:19.948Z,998.46
2017-02-21T10:44:19.965Z,998.41
2017-02-21T10:45:19.981Z,998.46
2017-02-21T10:46:19.997Z,998.51
2017-02-21T10:47:20.015Z,998.43
2017-02-21T10:48:20.031Z,998.47
2017-02-21T10:49:20.046Z,998.48
2017-02-21T10:50:20.063Z,998.5
2017-02-21T10:51:20.081Z,998.52
2017-02-21T10:52:20.098Z,998.43
2017-02-21T10:53:20.112Z,998.49
2017-02-21T10:54:20.130Z,998.54
2017-02-21T10:55:20.146Z,998.57
2017-02-21T10:56:20.163Z,998.62
2017-02-21T10:57:20.180Z,998.6
2017-02-21T10:58:20.197Z,998.6
2017-02-21T10:59:20.213Z,998.56
2017-02-21T11:00:20.229Z,998.58
2017-02-21T11:01:20.248Z,998.44
2017-02-21T11:02:20.262Z,998.48
2017-02-21T11:03:20.280Z,998.48
2017-02-21T11:04:20.296Z,998.6
2017-02-21T11:05:20.313Z,998.59
2017-02-21T11:06:20.332Z,998.5
2017-02-21T11:07:20.347Z,998.54
2017-02-21T11:08:20.364Z,998.54
2017-02-21T11:09:20.380Z,998.54
2017-02-21T11:10:20.398Z,998.54
2017-02-21T11:11:20.414Z,998.64
2017-02-21T11:12:20.432Z,998.6
2017-02-21T11:13:20.448Z,998.6
2017-02-21T11:14:20.466Z,998.67
2017-02-21T11:15:20.482Z,998.56
2017-02-21T11:16:20.499Z,998.62
2017-02-21T11:17:20.516Z,998.63
2017-02-21T11:18:20.532Z,998.62
2017-02-21T11:19:20.550Z,998.65
2017-02-21T11:20:20.568Z,998.81
2017-02-21T11:21:20.586Z,998.69
2017-02-21T11:22:20.601Z,998.71
2017-02-21T11:23:20.619Z,998.76
2017-02-21T11:24:20.641Z,998.79
2017-02-21T11:25:20.655Z,998.81
2017-02-21T11:26:20.669Z,998.77
2017-02-21T11:27:20.686Z,998.85
2017-02-21T11:28:20.704Z,998.86
2017-02-21T11:29:20.720Z,998.89
2017-02-21T11:30:20.736Z,998.91
2017-02-21T11:31:20.757Z,998.94
2017-02-21T11:32:20.772Z,998.9
2017-02-21T11:33:20.788Z,998.9
2017-02-21T11:34:20.804Z,998.83
2017-02-21T11:35:20.823Z,998.84
2017-02-21T11:36:20.838Z,998.93
2017-02-21T11:37:20.855Z,998.89
2017-02-21T11:38:20.874Z,998.91
2017-02-21T11:39:20.892Z,998.89
2017-02-21T11:40:20.907Z,998.85
2017-02-21T11:41:20.923Z,998.89
2017-02-21T11:42:20.941Z,998.84
2017-02-21T11:43:20.960Z,998.84
2017-02-21T11:44:20.975Z,998.86
2017-02-21T11:45:20.991Z,998.85
2017-02-21T11:46:21.010Z,998.93
2017-02-21T11:47:21.028Z,998.89
2017-02-21T11:48:21.044Z,999.02
2017-02-21T11:49:21.061Z,998.97
2017-02-21T11:50:21.078Z,999.03
2017-02-21T11:51:21.094Z,999.16
2017-02-21T11:52:21.112Z,999.13
2017-02-21T11:53:21.130Z,999.22
2017-02-21T11:54:21.147Z,999.15
2017-02-21T11:55:21.161Z,999.18
2017-02-21T11:56:21.179Z,999.16
2017-02-21T11:57:21.197Z,999.17
2017-02-21T11:58:21.216Z,999.3
2017-02-21T11:59:21.231Z,999.17
2017-02-21T12:00:21.248Z,999.17
2017-02-21T12:01:21.273Z,999.2
2017-02-21T12:02:21.283Z,999.07
2017-02-21T12:03:21.299Z,999.07
2017-02-21T12:04:21.316Z,999.07
2017-02-21T12:05:21.334Z,999.03
2017-02-21T12:06:21.351Z,999
2017-02-21T12:07:21.367Z,998.99
2017-02-21T12:08:21.385Z,998.94
2017-02-21T12:09:21.404Z,998.95
2017-02-21T12:10:21.418Z,998.93
2017-02-21T12:11:21.435Z,998.89
2017-02-21T12:12:21.453Z,998.97
2017-02-21T12:13:21.470Z,998.95
2017-02-21T12:14:21.487Z,998.94
2017-02-21T12:15:21.504Z,998.92
2017-02-21T12:16:21.522Z,998.93
2017-02-21T12:17:21.538Z,998.93
2017-02-21T12:18:21.555Z,998.93
2017-02-21T12:19:21.572Z,998.94
2017-02-21T12:20:21.589Z,998.91
2017-02-21T12:21:21.605Z,998.92
2017-02-21T12:22:21.622Z,998.91
2017-02-21T12:23:21.639Z,998.96
2017-02-21T12:24:21.656Z,998.88
2017-02-21T12:25:21.672Z,998.88
2017-02-21T12:26:21.691Z,998.87
2017-02-21T12:27:21.708Z,998.84
2017-02-21T12:28:21.723Z,998.85
2017-02-21T12:29:21.741Z,998.88
2017-02-21T12:30:21.758Z,998.81
2017-02-21T12:31:21.776Z,998.87
2017-02-21T12:32:21.791Z,998.9